Time;durP1;ratioP1;P1;durP2;ratioP2;P2;SDS_P1;SDS_P2;PMS_P1;PMS_P2;Temp;Humidity;BMP_temperature;BMP_pressure;BME280_temperature;BME280_humidity;BME280_pressure;Samples;Min_cycle;Max_cycle;Signal;HPM_P1;HPM_P2
2022/02/25 00:00:52;;;;;;;8.20;4.18;;;;;;;;;;5071165;28;20208;-79
2022/02/25 00:03:19;;;;;;;15.00;4.18;;;;;;;;;;5065725;28;20195;-77
2022/02/25 00:05:46;;;;;;;7.95;4.60;;;;;;;;;;5066172;28;20218;-77
2022/02/25 00:08:13;;;;;;;10.85;4.47;;;;;;;;;;5069009;28;20206;-78
2022/02/25 00:10:40;;;;;;;10.00;3.95;;;;;;;;;;5064986;28;20229;-79
2022/02/25 00:13:07;;;;;;;8.30;4.18;;;;;;;;;;5064629;28;20186;-78
2022/02/25 00:15:34;;;;;;;9.20;4.30;;;;;;;;;;5057899;28;20687;-79
2022/02/25 00:18:03;;;;;;;10.00;4.30;;;;;;;;;;5052311;28;20660;-77
2022/02/25 00:20:30;;;;;;;8.25;3.90;;;;;;;;;;5051131;28;20522;-78
2022/02/25 00:22:57;;;;;;;12.35;4.22;;;;;;;;;;5054086;28;20198;-80
2022/02/25 00:25:25;;;;;;;6.90;3.30;;;;;;;;;;5053700;28;20691;-77
2022/02/25 00:27:52;;;;;;;9.63;3.70;;;;;;;;;;5071384;28;20540;-77
2022/02/25 00:30:19;;;;;;;9.57;4.50;;;;;;;;;;5070682;28;20228;-78
2022/02/25 00:32:46;;;;;;;6.97;3.85;;;;;;;;;;5066670;28;20198;-78
2022/02/25 00:35:14;;;;;;;6.05;3.80;;;;;;;;;;5068090;28;20217;-76
2022/02/25 00:37:42;;;;;;;6.28;3.00;;;;;;;;;;5069562;28;20675;-78
2022/02/25 00:40:10;;;;;;;8.52;3.30;;;;;;;;;;5070157;28;20194;-78
2022/02/25 00:42:37;;;;;;;7.85;2.85;;;;;;;;;;5068104;28;20731;-80
2022/02/25 00:45:05;;;;;;;5.82;2.80;;;;;;;;;;5063821;28;20222;-79
2022/02/25 00:47:32;;;;;;;6.20;2.80;;;;;;;;;;5064365;28;20203;-79
2022/02/25 00:49:59;;;;;;;6.18;2.72;;;;;;;;;;5072496;28;20205;-77
2022/02/25 00:52:28;;;;;;;11.05;2.63;;;;;;;;;;5069050;28;20242;-79
2022/02/25 00:54:55;;;;;;;10.65;3.00;;;;;;;;;;5063465;28;20221;-79
2022/02/25 00:57:23;;;;;;;5.30;2.80;;;;;;;;;;5066644;28;20194;-78
2022/02/25 00:59:50;;;;;;;5.18;2.83;;;;;;;;;;5069490;28;20217;-78
2022/02/25 01:02:17;;;;;;;10.10;3.47;;;;;;;;;;5068159;28;20213;-77
2022/02/25 01:04:46;;;;;;;11.40;4.25;;;;;;;;;;5069965;28;20657;-79
2022/02/25 01:07:13;;;;;;;6.88;3.15;;;;;;;;;;5070418;28;20708;-79
2022/02/25 01:09:42;;;;;;;10.10;4.47;;;;;;;;;;5055219;28;20206;-78
2022/02/25 01:12:10;;;;;;;12.07;3.88;;;;;;;;;;5071096;28;20233;-79
2022/02/25 01:14:38;;;;;;;6.60;3.40;;;;;;;;;;5069323;28;20617;-79
2022/02/25 01:17:05;;;;;;;7.78;3.65;;;;;;;;;;5072022;28;20205;-80
2022/02/25 01:19:32;;;;;;;11.10;3.83;;;;;;;;;;5069366;28;20224;-81
2022/02/25 01:21:59;;;;;;;6.30;3.65;;;;;;;;;;5074073;28;20198;-79
2022/02/25 01:24:26;;;;;;;14.25;3.88;;;;;;;;;;5072986;28;20229;-78
2022/02/25 01:26:55;;;;;;;5.38;3.40;;;;;;;;;;5068847;28;20323;-78
2022/02/25 01:29:22;;;;;;;6.70;3.72;;;;;;;;;;5070626;28;20198;-78
2022/02/25 01:31:49;;;;;;;6.43;3.95;;;;;;;;;;5069721;28;20217;-79
2022/02/25 01:34:17;;;;;;;7.65;3.55;;;;;;;;;;5071060;28;20225;-77
2022/02/25 01:36:45;;;;;;;7.38;3.50;;;;;;;;;;5073621;28;20206;-78
2022/02/25 01:39:12;;;;;;;9.43;3.85;;;;;;;;;;5073626;28;20284;-79
2022/02/25 01:41:39;;;;;;;10.75;3.65;;;;;;;;;;5072584;28;20230;-76
2022/02/25 01:44:12;;;;;;;5.88;3.88;;;;;;;;;;5063066;28;20198;-77
2022/02/25 01:46:40;;;;;;;8.63;3.65;;;;;;;;;;5070108;28;20210;-80
2022/02/25 01:49:07;;;;;;;7.22;3.00;;;;;;;;;;5071810;28;20277;-79
2022/02/25 01:51:35;;;;;;;9.15;3.85;;;;;;;;;;5073595;28;20312;-77
2022/02/25 01:54:02;;;;;;;13.30;3.67;;;;;;;;;;5071669;28;20201;-80
2022/02/25 01:56:29;;;;;;;5.03;3.30;;;;;;;;;;5073103;28;20198;-79
2022/02/25 01:58:56;;;;;;;7.95;3.30;;;;;;;;;;5067399;28;20524;-77
2022/02/25 02:01:25;;;;;;;8.88;3.95;;;;;;;;;;5068594;28;20229;-77
2022/02/25 02:06:34;;;;;;;5.43;3.30;;;;;;;;;;5026254;28;20234;-80
2022/02/25 02:09:01;;;;;;;8.68;3.15;;;;;;;;;;5029959;28;20204;-77
2022/02/25 02:11:29;;;;;;;4.85;2.25;;;;;;;;;;5015351;28;20220;-78
2022/02/25 02:13:56;;;;;;;11.05;3.28;;;;;;;;;;5006363;28;20204;-80
2022/02/25 02:16:25;;;;;;;6.10;2.90;;;;;;;;;;5010364;28;20207;-78
2022/02/25 02:18:52;;;;;;;12.32;3.13;;;;;;;;;;5016369;28;20207;-80
2022/02/25 02:21:20;;;;;;;4.50;2.03;;;;;;;;;;5028398;28;20191;-77
2022/02/25 02:23:48;;;;;;;9.05;3.30;;;;;;;;;;5028231;28;20232;-78
2022/02/25 02:26:16;;;;;;;7.32;2.60;;;;;;;;;;5071874;28;20586;-78
2022/02/25 02:28:43;;;;;;;8.05;2.95;;;;;;;;;;5072383;28;20280;-77
2022/02/25 02:31:10;;;;;;;7.35;2.80;;;;;;;;;;5072596;28;20585;-78
2022/02/25 02:33:37;;;;;;;8.30;2.50;;;;;;;;;;5073013;28;20197;-77
2022/02/25 02:36:05;;;;;;;4.80;2.42;;;;;;;;;;5066600;28;20221;-78
2022/02/25 02:38:32;;;;;;;5.47;2.80;;;;;;;;;;5067752;28;20202;-80
2022/02/25 02:41:00;;;;;;;7.60;2.83;;;;;;;;;;5070256;28;20198;-76
2022/02/25 02:43:28;;;;;;;6.47;2.85;;;;;;;;;;5072400;28;20205;-79
2022/02/25 02:45:55;;;;;;;8.98;3.25;;;;;;;;;;5072546;28;20267;-80
2022/02/25 02:48:23;;;;;;;4.75;2.20;;;;;;;;;;5071177;28;20198;-78
2022/02/25 02:50:50;;;;;;;5.30;2.70;;;;;;;;;;5069349;28;20478;-78
2022/02/25 02:53:17;;;;;;;12.02;2.75;;;;;;;;;;5062083;28;20202;-79
2022/02/25 02:55:45;;;;;;;5.25;2.20;;;;;;;;;;5064384;28;20219;-80
2022/02/25 02:58:13;;;;;;;4.40;2.35;;;;;;;;;;5072100;28;20202;-80
2022/02/25 03:00:42;;;;;;;9.02;2.63;;;;;;;;;;5069538;28;20686;-78
2022/02/25 03:03:10;;;;;;;5.90;2.58;;;;;;;;;;5067887;28;20228;-78
2022/02/25 03:05:38;;;;;;;6.93;2.80;;;;;;;;;;5070942;28;20221;-80
2022/02/25 03:08:05;;;;;;;3.08;2.35;;;;;;;;;;5072060;28;20233;-79
2022/02/25 03:10:32;;;;;;;7.65;2.67;;;;;;;;;;5070220;28;20206;-78
2022/02/25 03:13:00;;;;;;;4.25;2.60;;;;;;;;;;5072025;28;20194;-80
2022/02/25 03:15:28;;;;;;;4.78;2.40;;;;;;;;;;5067621;28;20214;-79
2022/02/25 03:17:55;;;;;;;7.50;3.05;;;;;;;;;;5072169;28;20202;-78
2022/02/25 03:20:23;;;;;;;2.95;2.15;;;;;;;;;;5066810;28;20198;-80
2022/02/25 03:22:50;;;;;;;6.93;2.67;;;;;;;;;;5069133;28;20197;-78
2022/02/25 03:25:18;;;;;;;7.97;2.45;;;;;;;;;;5069608;28;20222;-79
2022/02/25 03:27:46;;;;;;;10.05;2.72;;;;;;;;;;5069891;28;20198;-80
2022/02/25 03:30:14;;;;;;;7.65;3.45;;;;;;;;;;5069781;28;20699;-79
2022/02/25 03:32:43;;;;;;;12.63;3.20;;;;;;;;;;5072158;28;20225;-79
2022/02/25 03:35:10;;;;;;;17.33;3.10;;;;;;;;;;5067041;28;20241;-80
2022/02/25 03:37:38;;;;;;;7.43;3.05;;;;;;;;;;5059738;28;20837;-80
2022/02/25 03:42:30;;;;;;;7.33;3.40;;;;;;;;;;5068411;28;20194;-81
2022/02/25 03:44:58;;;;;;;9.07;3.42;;;;;;;;;;5070885;28;20550;-79
2022/02/25 03:47:25;;;;;;;12.18;4.07;;;;;;;;;;5068396;28;20198;-79
2022/02/25 03:49:53;;;;;;;9.13;3.53;;;;;;;;;;5070898;28;20204;-81
2022/02/25 03:52:20;;;;;;;10.35;3.20;;;;;;;;;;5070158;28;20244;-78
2022/02/25 03:54:48;;;;;;;8.63;3.13;;;;;;;;;;5054251;28;20595;-81
2022/02/25 03:57:15;;;;;;;11.27;2.80;;;;;;;;;;5068754;28;20205;-78
2022/02/25 03:59:42;;;;;;;7.55;2.80;;;;;;;;;;5068043;28;20202;-80
2022/02/25 04:02:09;;;;;;;9.48;2.83;;;;;;;;;;5048401;28;20222;-77
2022/02/25 04:04:36;;;;;;;6.22;2.80;;;;;;;;;;5052947;28;20310;-80
2022/02/25 04:07:05;;;;;;;7.75;2.58;;;;;;;;;;5071096;28;20606;-79
2022/02/25 04:09:32;;;;;;;10.73;2.50;;;;;;;;;;5071781;28;20686;-79
2022/02/25 04:12:00;;;;;;;6.57;2.20;;;;;;;;;;5055539;28;20225;-79
2022/02/25 04:14:27;;;;;;;7.13;2.42;;;;;;;;;;5053035;28;20222;-77
2022/02/25 04:16:54;;;;;;;11.23;2.08;;;;;;;;;;5052597;28;20199;-81
2022/02/25 04:19:22;;;;;;;8.60;3.20;;;;;;;;;;5066059;28;20206;-80
2022/02/25 04:21:49;;;;;;;9.30;2.63;;;;;;;;;;5067306;28;20572;-80
2022/02/25 04:24:17;;;;;;;6.43;2.90;;;;;;;;;;5070062;28;20581;-79
2022/02/25 04:26:45;;;;;;;8.10;2.53;;;;;;;;;;5056300;28;20195;-79
2022/02/25 04:29:12;;;;;;;8.88;2.97;;;;;;;;;;5051013;28;20205;-80
2022/02/25 04:31:40;;;;;;;7.05;2.80;;;;;;;;;;5058097;28;20686;-77
2022/02/25 04:34:07;;;;;;;4.80;2.60;;;;;;;;;;5065218;28;20204;-79
2022/02/25 04:36:35;;;;;;;7.10;2.28;;;;;;;;;;5068136;28;20198;-79
2022/02/25 04:39:03;;;;;;;9.48;2.25;;;;;;;;;;5067556;28;20507;-76
2022/02/25 04:41:31;;;;;;;4.85;2.10;;;;;;;;;;5069850;28;20197;-79
2022/02/25 04:43:59;;;;;;;8.88;2.95;;;;;;;;;;5069987;28;20194;-80
2022/02/25 04:46:27;;;;;;;7.68;2.28;;;;;;;;;;5066522;28;20205;-78
2022/02/25 04:48:54;;;;;;;3.85;1.90;;;;;;;;;;5068156;28;20657;-81
2022/02/25 04:51:22;;;;;;;8.35;2.10;;;;;;;;;;5056771;28;20675;-81
2022/02/25 04:53:49;;;;;;;4.97;1.70;;;;;;;;;;5052135;28;20567;-78
2022/02/25 04:56:17;;;;;;;13.38;2.25;;;;;;;;;;5062821;28;20233;-79
2022/02/25 04:58:45;;;;;;;14.55;2.30;;;;;;;;;;5066736;28;20282;-81
2022/02/25 05:01:12;;;;;;;7.70;1.98;;;;;;;;;;5059034;28;20198;-79
2022/02/25 05:03:40;;;;;;;8.77;2.00;;;;;;;;;;5064982;28;20244;-77
2022/02/25 05:06:07;;;;;;;13.20;2.28;;;;;;;;;;5069953;28;20218;-78
2022/02/25 05:08:34;;;;;;;6.30;1.80;;;;;;;;;;5070437;28;20314;-79
2022/02/25 05:11:02;;;;;;;7.43;2.22;;;;;;;;;;5069220;28;20682;-79
2022/02/25 05:13:30;;;;;;;10.98;2.17;;;;;;;;;;5060585;28;20248;-79
2022/02/25 05:21:20;;;;;;;8.13;1.83;;;;;;;;;;5068351;28;20202;-79
2022/02/25 05:23:47;;;;;;;5.75;1.92;;;;;;;;;;5069812;28;20332;-78
2022/02/25 05:26:14;;;;;;;9.10;2.30;;;;;;;;;;5058790;28;20236;-78
2022/02/25 05:28:42;;;;;;;8.57;2.25;;;;;;;;;;5048970;28;20529;-79
2022/02/25 05:31:10;;;;;;;5.32;2.38;;;;;;;;;;5064811;28;20190;-81
2022/02/25 05:33:37;;;;;;;9.85;2.38;;;;;;;;;;5067452;28;20794;-76
2022/02/25 05:36:04;;;;;;;8.27;2.40;;;;;;;;;;5052592;28;20219;-76
2022/02/25 05:38:32;;;;;;;7.72;2.20;;;;;;;;;;5048114;28;20832;-78
2022/02/25 05:40:59;;;;;;;9.73;2.70;;;;;;;;;;5049858;28;20208;-77
2022/02/25 05:43:26;;;;;;;6.53;2.53;;;;;;;;;;5055387;28;20198;-77
2022/02/25 05:45:53;;;;;;;3.97;2.20;;;;;;;;;;5064731;28;20222;-79
2022/02/25 05:48:21;;;;;;;16.58;2.85;;;;;;;;;;5051351;28;20199;-77
2022/02/25 05:50:49;;;;;;;6.47;2.90;;;;;;;;;;5071521;28;20651;-77
2022/02/25 05:53:16;;;;;;;9.07;2.67;;;;;;;;;;5067873;28;20583;-77
2022/02/25 05:55:43;;;;;;;6.72;2.50;;;;;;;;;;5068949;28;20221;-78
2022/02/25 05:58:10;;;;;;;16.10;2.92;;;;;;;;;;5072317;28;20694;-78
2022/02/25 06:00:37;;;;;;;14.77;3.53;;;;;;;;;;5072877;28;20198;-78
2022/02/25 06:03:04;;;;;;;8.68;3.47;;;;;;;;;;5071756;28;20218;-80
2022/02/25 06:05:33;;;;;;;9.55;3.75;;;;;;;;;;5066817;28;20218;-80
2022/02/25 06:08:00;;;;;;;11.23;2.92;;;;;;;;;;5053802;28;20210;-78
2022/02/25 06:10:29;;;;;;;10.38;3.55;;;;;;;;;;5069645;28;20201;-79
2022/02/25 06:12:56;;;;;;;11.32;3.55;;;;;;;;;;5073429;28;20214;-81
2022/02/25 06:15:24;;;;;;;8.85;3.00;;;;;;;;;;5071215;28;20221;-79
2022/02/25 06:17:52;;;;;;;6.75;3.40;;;;;;;;;;5069036;28;20198;-78
2022/02/25 06:20:19;;;;;;;6.38;2.92;;;;;;;;;;5071028;28;20289;-80
2022/02/25 06:22:48;;;;;;;9.00;3.25;;;;;;;;;;5071770;28;20196;-79
2022/02/25 06:25:16;;;;;;;9.35;3.08;;;;;;;;;;5071242;28;20717;-81
2022/02/25 06:27:43;;;;;;;11.07;3.20;;;;;;;;;;5065151;28;20800;-78
2022/02/25 06:30:12;;;;;;;12.80;3.58;;;;;;;;;;5066588;28;20206;-78
2022/02/25 06:32:39;;;;;;;10.40;3.50;;;;;;;;;;5063141;28;20582;-78
2022/02/25 06:35:07;;;;;;;10.48;3.08;;;;;;;;;;5068644;28;20217;-79
2022/02/25 06:37:34;;;;;;;8.23;2.92;;;;;;;;;;5072913;28;20627;-80
2022/02/25 06:40:02;;;;;;;8.82;3.58;;;;;;;;;;5072719;28;20206;-78
2022/02/25 06:42:29;;;;;;;6.75;3.28;;;;;;;;;;5072761;28;20190;-78
2022/02/25 06:44:57;;;;;;;9.07;2.35;;;;;;;;;;5071738;28;20222;-79
2022/02/25 06:47:24;;;;;;;6.78;2.63;;;;;;;;;;5072726;28;20208;-79
2022/02/25 06:49:51;;;;;;;12.40;3.30;;;;;;;;;;5072029;28;20201;-80
2022/02/25 06:52:19;;;;;;;15.10;3.20;;;;;;;;;;5074498;28;20264;-79
2022/02/25 06:54:46;;;;;;;10.98;3.60;;;;;;;;;;5070462;28;20280;-79
2022/02/25 06:57:14;;;;;;;14.63;3.70;;;;;;;;;;5069849;28;20536;-80
2022/02/25 06:59:41;;;;;;;10.35;3.70;;;;;;;;;;5069969;28;20202;-78
2022/02/25 07:02:10;;;;;;;8.85;3.63;;;;;;;;;;5068516;28;20190;-78
2022/02/25 07:04:38;;;;;;;13.68;3.17;;;;;;;;;;5053993;28;20238;-77
2022/02/25 07:07:05;;;;;;;8.85;3.53;;;;;;;;;;5059592;28;20190;-79
2022/02/25 07:09:32;;;;;;;15.82;3.45;;;;;;;;;;5068686;28;20190;-79
2022/02/25 07:11:59;;;;;;;6.95;3.10;;;;;;;;;;5064747;28;21369;-79
2022/02/25 07:14:28;;;;;;;13.75;3.70;;;;;;;;;;5066756;28;20584;-77
2022/02/25 07:16:55;;;;;;;11.75;3.33;;;;;;;;;;5071110;28;20194;-77
2022/02/25 07:19:22;;;;;;;6.63;3.05;;;;;;;;;;5071822;28;20198;-80
2022/02/25 07:21:49;;;;;;;8.73;3.45;;;;;;;;;;5052587;28;20203;-80
2022/02/25 07:24:16;;;;;;;9.05;3.00;;;;;;;;;;5049428;28;20707;-79
2022/02/25 07:26:45;;;;;;;11.35;3.13;;;;;;;;;;5050539;28;20203;-77
2022/02/25 07:29:13;;;;;;;7.43;3.00;;;;;;;;;;5062506;28;20255;-80
2022/02/25 07:31:42;;;;;;;8.07;2.78;;;;;;;;;;5069388;28;20597;-78
2022/02/25 07:34:09;;;;;;;11.50;2.70;;;;;;;;;;5069739;28;20229;-78
2022/02/25 07:36:36;;;;;;;10.07;2.80;;;;;;;;;;5069611;28;20255;-82
2022/02/25 07:39:04;;;;;;;9.63;3.05;;;;;;;;;;5063509;28;20198;-80
2022/02/25 07:41:32;;;;;;;12.77;3.78;;;;;;;;;;5052055;28;20194;-80
2022/02/25 07:43:59;;;;;;;7.00;2.10;;;;;;;;;;5052376;28;20514;-79
2022/02/25 07:46:26;;;;;;;7.18;3.10;;;;;;;;;;5053671;28;20198;-79
2022/02/25 07:48:55;;;;;;;13.10;2.38;;;;;;;;;;5053622;28;20746;-79
2022/02/25 07:51:22;;;;;;;8.45;3.05;;;;;;;;;;5064291;28;20248;-79
2022/02/25 07:53:49;;;;;;;6.90;2.58;;;;;;;;;;5067128;28;20221;-79
2022/02/25 07:56:17;;;;;;;12.95;4.80;;;;;;;;;;5061979;28;20217;-81
2022/02/25 07:58:44;;;;;;;11.38;4.90;;;;;;;;;;5051086;28;20554;-81
2022/02/25 08:01:13;;;;;;;17.02;4.82;;;;;;;;;;5051029;28;20537;-79
2022/02/25 08:03:40;;;;;;;10.35;3.85;;;;;;;;;;5054468;28;20251;-81
2022/02/25 08:06:09;;;;;;;12.13;3.78;;;;;;;;;;5065085;28;20679;-82
2022/02/25 08:08:37;;;;;;;14.45;4.43;;;;;;;;;;5071118;28;20198;-79
2022/02/25 08:11:05;;;;;;;10.15;4.22;;;;;;;;;;5063435;28;20191;-81
2022/02/25 08:13:32;;;;;;;8.77;2.80;;;;;;;;;;5062497;28;20313;-80
2022/02/25 08:15:59;;;;;;;12.43;3.20;;;;;;;;;;5066514;28;20225;-79
2022/02/25 08:18:27;;;;;;;14.05;3.17;;;;;;;;;;5068542;28;20655;-78
2022/02/25 08:20:54;;;;;;;11.25;2.72;;;;;;;;;;5067965;28;20566;-78
2022/02/25 08:23:22;;;;;;;6.93;2.65;;;;;;;;;;5068245;28;20201;-77
2022/02/25 08:25:50;;;;;;;15.52;3.75;;;;;;;;;;5051317;28;20210;-80
2022/02/25 08:28:18;;;;;;;11.95;2.60;;;;;;;;;;5067969;28;20202;-78
2022/02/25 08:30:46;;;;;;;8.68;2.67;;;;;;;;;;5063959;28;20297;-79
2022/02/25 08:33:13;;;;;;;9.38;2.70;;;;;;;;;;5067965;28;20687;-76
2022/02/25 08:35:41;;;;;;;10.65;2.50;;;;;;;;;;5069694;28;20213;-79
2022/02/25 08:38:08;;;;;;;12.40;3.38;;;;;;;;;;5068562;28;20197;-77
2022/02/25 08:40:38;;;;;;;12.55;3.42;;;;;;;;;;5068949;28;20198;-78
2022/02/25 08:43:05;;;;;;;5.38;2.60;;;;;;;;;;5069948;28;20209;-77
2022/02/25 08:45:32;;;;;;;8.93;3.20;;;;;;;;;;5050131;28;20605;-79
2022/02/25 08:48:00;;;;;;;9.00;2.70;;;;;;;;;;5063632;28;20267;-83
2022/02/25 08:50:27;;;;;;;10.07;3.33;;;;;;;;;;5062926;28;20205;-77
2022/02/25 08:52:56;;;;;;;5.90;3.38;;;;;;;;;;5064748;28;20645;-79
2022/02/25 08:55:23;;;;;;;7.25;3.60;;;;;;;;;;5065051;28;20237;-80
2022/02/25 08:57:52;;;;;;;13.85;3.38;;;;;;;;;;5066379;28;20198;-78
2022/02/25 09:00:21;;;;;;;10.88;4.32;;;;;;;;;;5065060;28;20198;-79
2022/02/25 09:02:49;;;;;;;11.95;4.88;;;;;;;;;;5063512;28;20225;-80
2022/02/25 09:05:17;;;;;;;9.23;3.60;;;;;;;;;;5059507;28;20718;-81
2022/02/25 09:07:45;;;;;;;11.50;4.10;;;;;;;;;;5061321;28;20206;-78
2022/02/25 09:10:13;;;;;;;13.52;4.35;;;;;;;;;;5064124;28;20201;-77
2022/02/25 09:12:41;;;;;;;12.23;3.80;;;;;;;;;;5046446;28;20652;-79
2022/02/25 09:15:11;;;;;;;13.23;3.25;;;;;;;;;;5045143;28;20478;-78
2022/02/25 09:17:38;;;;;;;15.15;4.05;;;;;;;;;;5046305;28;20200;-78
2022/02/25 09:20:07;;;;;;;12.13;4.35;;;;;;;;;;5044509;28;20214;-80
2022/02/25 09:22:35;;;;;;;7.68;3.33;;;;;;;;;;5062109;28;20651;-77
2022/02/25 09:25:04;;;;;;;8.70;3.20;;;;;;;;;;5057398;28;20230;-78
2022/02/25 09:27:32;;;;;;;7.97;3.25;;;;;;;;;;5066639;28;20212;-78
2022/02/25 09:30:00;;;;;;;15.13;3.58;;;;;;;;;;5068319;28;20198;-80
2022/02/25 09:32:28;;;;;;;10.63;3.55;;;;;;;;;;5050782;28;20624;-82
2022/02/25 09:34:56;;;;;;;12.27;3.85;;;;;;;;;;5051042;28;20241;-82
2022/02/25 09:37:24;;;;;;;9.13;4.20;;;;;;;;;;5049893;28;20213;-78
2022/02/25 09:39:53;;;;;;;10.52;3.45;;;;;;;;;;5063984;28;20675;-80
2022/02/25 09:42:21;;;;;;;8.65;3.70;;;;;;;;;;5066972;28;20218;-79
2022/02/25 09:44:48;;;;;;;8.48;3.72;;;;;;;;;;5061529;28;20238;-79
2022/02/25 09:47:16;;;;;;;7.40;3.42;;;;;;;;;;5050078;28;20195;-79
2022/02/25 09:49:44;;;;;;;13.57;3.42;;;;;;;;;;5049797;28;20686;-79
2022/02/25 09:52:13;;;;;;;9.63;3.80;;;;;;;;;;5050829;28;20205;-79
2022/02/25 09:54:41;;;;;;;6.80;3.38;;;;;;;;;;5056310;28;20221;-79
2022/02/25 09:57:08;;;;;;;9.98;3.72;;;;;;;;;;5070424;28;20194;-79
2022/02/25 09:59:35;;;;;;;14.20;4.80;;;;;;;;;;5070233;28;20450;-78
2022/02/25 10:02:03;;;;;;;14.15;6.40;;;;;;;;;;5068361;28;20226;-79
2022/02/25 10:04:31;;;;;;;12.35;3.90;;;;;;;;;;5067645;28;20734;-80
2022/02/25 10:07:00;;;;;;;11.77;4.30;;;;;;;;;;5054734;28;20205;-81
2022/02/25 10:09:36;;;;;;;9.38;3.55;;;;;;;;;;5049739;28;20199;-79
2022/02/25 10:12:05;;;;;;;13.50;4.88;;;;;;;;;;5050867;28;20659;-80
2022/02/25 10:14:33;;;;;;;11.02;3.55;;;;;;;;;;5050432;28;20222;-79
2022/02/25 10:17:08;;;;;;;12.93;5.65;;;;;;;;;;5059243;28;20573;-79
2022/02/25 10:19:38;;;;;;;17.95;5.88;;;;;;;;;;5069625;28;20198;-80
2022/02/25 10:22:21;;;;;;;15.10;5.43;;;;;;;;;;5089928;28;20196;-79
2022/02/25 10:24:54;;;;;;;17.83;4.07;;;;;;;;;;5063148;28;20264;-79
2022/02/25 10:27:23;;;;;;;11.40;4.07;;;;;;;;;;5067894;28;20867;-80
2022/02/25 10:29:52;;;;;;;13.77;6.28;;;;;;;;;;5050176;28;20199;-81
2022/02/25 10:32:20;;;;;;;21.30;5.50;;;;;;;;;;5052212;28;20540;-81
2022/02/25 10:34:50;;;;;;;13.80;5.20;;;;;;;;;;5049040;28;20228;-78
2022/02/25 10:37:17;;;;;;;20.13;5.75;;;;;;;;;;5049476;28;20194;-82
2022/02/25 10:39:48;;;;;;;15.68;4.57;;;;;;;;;;5047582;28;20763;-81
2022/02/25 10:42:19;;;;;;;16.40;6.75;;;;;;;;;;5060833;28;21056;-80
2022/02/25 10:44:54;;;;;;;10.55;4.18;;;;;;;;;;5063857;28;20275;-80
2022/02/25 10:47:23;;;;;;;16.30;5.43;;;;;;;;;;5068955;28;20658;-80
2022/02/25 10:49:51;;;;;;;15.57;3.55;;;;;;;;;;5065482;28;20194;-83
2022/02/25 10:52:21;;;;;;;13.85;4.18;;;;;;;;;;5066557;28;20191;-79
2022/02/25 10:54:48;;;;;;;10.57;4.00;;;;;;;;;;5049127;28;20309;-80
2022/02/25 10:57:19;;;;;;;14.32;4.35;;;;;;;;;;5053944;28;20956;-80
2022/02/25 10:59:47;;;;;;;8.15;3.47;;;;;;;;;;5057994;28;20286;-82
2022/02/25 11:02:29;;;;;;;8.20;3.50;;;;;;;;;;5063085;28;20194;-81
2022/02/25 11:04:59;;;;;;;11.90;4.32;;;;;;;;;;5063906;28;20225;-80
2022/02/25 11:07:28;;;;;;;20.25;4.75;;;;;;;;;;5066417;28;20190;-80
2022/02/25 11:09:55;;;;;;;10.73;4.07;;;;;;;;;;5069837;28;20194;-81
2022/02/25 11:12:25;;;;;;;12.13;3.30;;;;;;;;;;5050781;28;20194;-80
2022/02/25 11:14:52;;;;;;;10.63;3.83;;;;;;;;;;5049517;28;20592;-80
2022/02/25 11:17:20;;;;;;;14.32;4.10;;;;;;;;;;5061240;28;20815;-80
2022/02/25 11:19:49;;;;;;;12.25;3.65;;;;;;;;;;5069615;28;20197;-79
2022/02/25 11:22:17;;;;;;;10.30;4.10;;;;;;;;;;5068457;28;20244;-81
2022/02/25 11:24:44;;;;;;;12.23;3.67;;;;;;;;;;5083784;28;20471;-79
2022/02/25 11:27:11;;;;;;;9.10;4.20;;;;;;;;;;5091425;28;20193;-77
2022/02/25 11:29:53;;;;;;;10.93;3.93;;;;;;;;;;5078724;28;20315;-80
2022/02/25 11:32:23;;;;;;;15.20;4.60;;;;;;;;;;5070722;28;20523;-80
2022/02/25 11:34:50;;;;;;;12.10;3.57;;;;;;;;;;5070627;28;20214;-79
2022/02/25 11:37:32;;;;;;;11.00;3.37;;;;;;;;;;5066709;28;20464;-79
2022/02/25 11:40:00;;;;;;;6.90;2.50;;;;;;;;;;5068241;28;20440;-83
2022/02/25 11:42:29;;;;;;;12.23;3.40;;;;;;;;;;5058497;28;20199;-82
2022/02/25 11:45:18;;;;;;;9.73;3.70;;;;;;;;;;5059583;28;20452;-81
2022/02/25 11:47:50;;;;;;;10.25;4.93;;;;;;;;;;5070032;28;20460;-81
2022/02/25 11:50:30;;;;;;;11.03;3.97;;;;;;;;;;5068805;28;20190;-81
2022/02/25 11:52:59;;;;;;;12.80;4.87;;;;;;;;;;5052892;28;20780;-79
2022/02/25 11:55:27;;;;;;;9.00;4.18;;;;;;;;;;5057759;28;20487;-80
2022/02/25 11:57:54;;;;;;;8.70;3.05;;;;;;;;;;5066798;28;20183;-81
2022/02/25 12:00:23;;;;;;;11.10;4.83;;;;;;;;;;5067507;28;20233;-80
2022/02/25 12:03:05;;;;;;;10.53;3.70;;;;;;;;;;5066088;28;20487;-77
2022/02/25 12:05:38;;;;;;;13.43;4.60;;;;;;;;;;5050551;28;20488;-78
2022/02/25 12:08:19;;;;;;;11.55;3.72;;;;;;;;;;5049882;28;20452;-78
2022/02/25 12:10:46;;;;;;;10.50;3.20;;;;;;;;;;5050085;28;20201;-79
2022/02/25 12:13:20;;;;;;;13.23;3.50;;;;;;;;;;5054202;28;20460;-76
2022/02/25 12:15:49;;;;;;;9.02;3.75;;;;;;;;;;5068066;28;20227;-78
2022/02/25 12:18:19;;;;;;;10.00;3.87;;;;;;;;;;5066781;28;20193;-77
2022/02/25 12:20:47;;;;;;;9.55;3.47;;;;;;;;;;5069299;28;20444;-79
2022/02/25 12:23:15;;;;;;;7.60;3.20;;;;;;;;;;5070449;28;20202;-79
2022/02/25 12:25:44;;;;;;;8.57;3.43;;;;;;;;;;5070840;28;20472;-78
2022/02/25 12:28:26;;;;;;;15.50;4.67;;;;;;;;;;5070622;28;20867;-78
2022/02/25 12:30:57;;;;;;;10.00;3.30;;;;;;;;;;5058620;28;21115;-78
2022/02/25 12:33:33;;;;;;;8.67;3.30;;;;;;;;;;5059321;28;20436;-75
2022/02/25 12:36:01;;;;;;;8.47;3.10;;;;;;;;;;5053992;28;20448;-77
2022/02/25 12:38:29;;;;;;;8.77;3.17;;;;;;;;;;5065828;28;20456;-82
2022/02/25 12:41:09;;;;;;;11.90;4.03;;;;;;;;;;5067363;28;20839;-78
2022/02/25 12:43:44;;;;;;;9.97;3.13;;;;;;;;;;5069487;28;20534;-77
2022/02/25 12:46:13;;;;;;;10.63;3.97;;;;;;;;;;5063545;28;20478;-78
2022/02/25 12:48:41;;;;;;;9.10;3.27;;;;;;;;;;5066058;28;20651;-77
2022/02/25 12:51:08;;;;;;;24.13;4.03;;;;;;;;;;5066828;28;20456;-78
2022/02/25 12:53:48;;;;;;;7.93;3.47;;;;;;;;;;5063006;28;20460;-79
2022/02/25 12:56:15;;;;;;;8.10;3.00;;;;;;;;;;5049838;28;20480;-79
2022/02/25 12:58:42;;;;;;;9.37;3.27;;;;;;;;;;5057428;28;20448;-80
2022/02/25 13:01:16;;;;;;;11.00;3.37;;;;;;;;;;5065189;28;20459;-78
2022/02/25 13:03:45;;;;;;;10.83;3.20;;;;;;;;;;5065815;28;20548;-77
2022/02/25 13:06:12;;;;;;;9.67;3.40;;;;;;;;;;5066234;28;20499;-79
2022/02/25 13:08:41;;;;;;;7.00;3.07;;;;;;;;;;5068820;28;20443;-78
2022/02/25 13:11:08;;;;;;;11.17;4.00;;;;;;;;;;5063941;28;20476;-78
2022/02/25 13:13:35;;;;;;;5.83;3.23;;;;;;;;;;5061637;28;20532;-78
2022/02/25 13:16:03;;;;;;;10.23;3.23;;;;;;;;;;5052120;28;20491;-78
2022/02/25 13:18:31;;;;;;;6.77;3.47;;;;;;;;;;5063983;28;20464;-79
2022/02/25 13:21:00;;;;;;;8.97;3.13;;;;;;;;;;5065001;28;20452;-79
2022/02/25 13:23:27;;;;;;;11.13;3.60;;;;;;;;;;5066166;28;20456;-82
2022/02/25 13:25:57;;;;;;;12.47;4.00;;;;;;;;;;5067218;28;20220;-79
2022/02/25 13:28:25;;;;;;;8.32;3.00;;;;;;;;;;5050352;28;20452;-81
2022/02/25 13:30:53;;;;;;;10.38;2.85;;;;;;;;;;5048783;28;20658;-77
2022/02/25 13:33:20;;;;;;;5.45;3.10;;;;;;;;;;5052476;28;20205;-80
2022/02/25 13:35:49;;;;;;;5.03;2.72;;;;;;;;;;5062052;28;20607;-78
2022/02/25 13:38:21;;;;;;;4.82;2.38;;;;;;;;;;5061133;28;20315;-79
2022/02/25 13:40:49;;;;;;;5.35;2.25;;;;;;;;;;5045982;28;20199;-78
2022/02/25 13:43:20;;;;;;;5.97;2.60;;;;;;;;;;5056162;28;20199;-78
2022/02/25 13:45:48;;;;;;;5.60;2.65;;;;;;;;;;5052625;28;20584;-78
2022/02/25 13:53:42;;;;;;;6.88;2.90;;;;;;;;;;5063468;28;20759;-78
2022/02/25 13:56:09;;;;;;;14.98;4.28;;;;;;;;;;5060556;28;20233;-81
2022/02/25 13:58:36;;;;;;;13.60;3.80;;;;;;;;;;5050672;28;20198;-79
2022/02/25 14:01:03;;;;;;;9.88;3.75;;;;;;;;;;5053647;28;20194;-79
2022/02/25 14:03:41;;;;;;;5.50;3.15;;;;;;;;;;5059988;28;20317;-81
2022/02/25 14:06:22;;;;;;;9.82;3.85;;;;;;;;;;5059233;28;20567;-79
2022/02/25 14:08:51;;;;;;;12.32;3.90;;;;;;;;;;5060548;28;20213;-80
2022/02/25 14:11:30;;;;;;;12.07;3.78;;;;;;;;;;5064067;28;20430;-80
2022/02/25 14:13:57;;;;;;;16.23;4.47;;;;;;;;;;5067515;28;20197;-79
2022/02/25 14:16:26;;;;;;;12.98;4.10;;;;;;;;;;5068311;28;20601;-78
2022/02/25 14:18:53;;;;;;;9.48;3.28;;;;;;;;;;5069671;28;20202;-76
2022/02/25 14:21:27;;;;;;;17.70;3.97;;;;;;;;;;5068039;28;20418;-79
2022/02/25 14:23:56;;;;;;;5.65;2.58;;;;;;;;;;5066234;28;20231;-75
2022/02/25 14:26:28;;;;;;;7.50;3.42;;;;;;;;;;5066120;28;20817;-77
2022/02/25 14:28:55;;;;;;;12.45;3.50;;;;;;;;;;5069456;28;20259;-77
2022/02/25 14:31:25;;;;;;;5.80;2.92;;;;;;;;;;5060350;28;20195;-77
2022/02/25 14:33:53;;;;;;;7.25;3.22;;;;;;;;;;5051814;28;20199;-78
2022/02/25 14:36:21;;;;;;;8.40;3.50;;;;;;;;;;5069591;28;20674;-77
2022/02/25 14:38:49;;;;;;;9.63;3.42;;;;;;;;;;5053621;28;20218;-77
2022/02/25 14:41:19;;;;;;;10.88;3.15;;;;;;;;;;5052841;28;20241;-78
2022/02/25 14:43:46;;;;;;;9.77;4.35;;;;;;;;;;5064263;28;20194;-77
2022/02/25 14:46:13;;;;;;;11.73;3.55;;;;;;;;;;5069389;28;20202;-79
2022/02/25 14:48:41;;;;;;;8.70;3.63;;;;;;;;;;5070839;28;20648;-77
2022/02/25 14:51:09;;;;;;;6.45;3.63;;;;;;;;;;5071329;28;20202;-77
2022/02/25 14:53:36;;;;;;;8.27;3.97;;;;;;;;;;5071602;28;20198;-78
2022/02/25 14:56:04;;;;;;;9.85;3.40;;;;;;;;;;5063383;28;20237;-77
2022/02/25 14:58:32;;;;;;;12.80;4.78;;;;;;;;;;5067654;28;20201;-78
2022/02/25 15:01:01;;;;;;;7.07;3.72;;;;;;;;;;5054487;28;20574;-82